Dobrodošli na spletni strani vremenske postaje Senovo. Vse informacije so informativnega značaja, saj vremenska postaja ni del državne mreže meteoroloških postaj. AKTUALNIH OBVESTIL NI.


Sneg/Led Od: 23-02-2018 00:00 Do: 23:59 Opozorilo za: Sneg/Led Stopnja: Rumena info button

Pogled proti Armezu več informacij Pogled proti Armezu


Lisca več informacij Lisca


Radar strel več informacij blitzortung!


opozorilo za sneg/led več informacij rain snow radar


Obiščite še:

Template documentation
and downloads

And another site



Weather Underground, zgodovina - Tekstovno

Dnevni povzetek za December 22, 2017 Enote:  Metrično    Angleško   Obe
« Predhodni Dan
Naslednji Dan »
Dnevni Tedenski Mesečni Letni Po meri
  Višja: Nižja: Povprečje:
Temperatura: -17.8 °C -19.2 °C -17.5 °C
Točka rosišča: -17.8 °C -19.9 °C -18.4 °C
Vlažnost: Humidity % 0 % 87 %
Hitrost vetra: 0 km/h 0 km/h 1 km/h
Sunki vetra: 0 km/h - -
Veter:- - SW
Zračni tlak: 0 hPa 0 hPa -
Padavine: 0 mm    
Historical Graphs
 
 
Tabelarni podarki za December 22, 2017
Čas Temperatura Točka rosišča Zračni tlak Veter Hitrost vetra Sunki vetra Vlažnost Intenziteta padavin (urna)
-17.8 °C -17.8 °C 0 hPa Calm     Humidity % 0 mm
00:03 -18.1 °C -19 °C 34841.9 hPa Calm     89 % 0 mm
00:05 -18.2 °C -19.1 °C 34841.9 hPa Calm     89 % 0 mm
00:07 -18.2 °C -19.1 °C 34841.9 hPa Calm     89 % 0 mm
00:12 -18.2 °C -19.1 °C 34841.9 hPa Calm     89 % 0 mm
00:17 -18.2 °C -19.1 °C 34841.9 hPa Calm     89 % 0 mm
00:18 -18.2 °C -19.1 °C 34841.9 hPa Calm     89 % 0 mm
00:23 -18.2 °C -19.1 °C 34841.9 hPa Calm     89 % 0 mm
00:27 -18.2 °C -19.1 °C 34841.9 hPa Calm     89 % 0 mm
00:32 -18.2 °C -19.1 °C 34841.9 hPa Calm     89 % 0 mm
00:37 -18.2 °C -19.1 °C 34841.9 hPa Calm     89 % 0 mm
00:42 -18.2 °C -19.1 °C 34841.9 hPa Calm     89 % 0 mm
00:45 -18.2 °C -19.1 °C 34841.9 hPa Calm     89 % 0 mm
00:50 -18.2 °C -19.1 °C 34841.9 hPa Calm     89 % 0 mm
00:51 -18.2 °C -19.1 °C 34841.9 hPa Calm     89 % 0 mm
00:57 -17.8 °C -19.1 °C 0 hPa Calm     0 % 0 mm
01:00 -18.2 °C -19.1 °C 34875.8 hPa Calm     89 % 0 mm
01:05 -18.3 °C -19.2 °C 34875.8 hPa Calm     89 % 0 mm
01:10 -18.3 °C -19.1 °C 34875.8 hPa Calm     90 % 0 mm
01:11 -18.3 °C -19.1 °C 34875.8 hPa Calm     90 % 0 mm
01:15 -18.3 °C -19.1 °C 34841.9 hPa Calm     90 % 0 mm
01:17 -18.3 °C -19.1 °C 34841.9 hPa Calm     90 % 0 mm
01:22 -18.4 °C -19.2 °C 34841.9 hPa Calm     90 % 0 mm
01:27 -18.4 °C -19.2 °C 34841.9 hPa Calm     90 % 0 mm
01:31 -18.5 °C -19.3 °C 34841.9 hPa Calm     90 % 0 mm
01:34 -18.6 °C -19.3 °C 34841.9 hPa Calm     90 % 0 mm
01:37 -18.6 °C -19.3 °C 34841.9 hPa Calm     90 % 0 mm
01:41 -18.6 °C -19.4 °C 34841.9 hPa Calm     90 % 0 mm
01:46 -18.7 °C -19.4 °C 34875.8 hPa Calm     90 % 0 mm
01:50 -18.7 °C -19.5 °C 34875.8 hPa Calm     90 % 0 mm
01:56 -18.8 °C -19.6 °C 34875.8 hPa Calm     90 % 0 mm
02:01 -18.7 °C -19.5 °C 34875.8 hPa Calm     90 % 0 mm
02:02 -18.7 °C -19.5 °C 34875.8 hPa Calm     90 % 0 mm
02:07 -18.7 °C -19.5 °C 34875.8 hPa Calm     90 % 0 mm
02:08 -18.7 °C -19.5 °C 34875.8 hPa Calm     90 % 0 mm
02:13 -18.7 °C -19.5 °C 34875.8 hPa Calm     90 % 0 mm
02:17 -18.7 °C -19.5 °C 34875.8 hPa Calm   5.6 km/h 90 % 0 mm
02:22 -18.7 °C -19.4 °C 34875.8 hPa SSE 1.8 km/h 6.4 km/h 90 % 0 mm
02:27 -18.7 °C -19.4 °C 34875.8 hPa SSE 1.6 km/h 6.4 km/h 90 % 0 mm
02:29 -18.6 °C -19.4 °C 34841.9 hPa SSE 0.5 km/h 3.4 km/h 90 % 0 mm
02:34 -18.6 °C -19.4 °C 34841.9 hPa Calm     90 % 0 mm
02:37 -18.6 °C -19.4 °C 34841.9 hPa Calm     90 % 0 mm
02:42 -18.6 °C -19.4 °C 34841.9 hPa NW 0.5 km/h 5.1 km/h 90 % 0 mm
02:43 -18.6 °C -19.4 °C 34841.9 hPa NW 0.5 km/h 5.1 km/h 90 % 0 mm
02:48 -18.6 °C -19.4 °C 34841.9 hPa NW 0.5 km/h 5.1 km/h 90 % 0 mm
02:49 -18.6 °C -19.4 °C 34841.9 hPa NW 0.5 km/h 5.1 km/h 90 % 0 mm
02:54 -18.6 °C -19.4 °C 34841.9 hPa WSW 0.3 km/h 5.1 km/h 90 % 0 mm
02:55 -18.6 °C -19.4 °C 34841.9 hPa WSW 0.3 km/h 5.1 km/h 90 % 0 mm
03:00 -18.6 °C -19.3 °C 34841.9 hPa SSW 0.3 km/h 5.1 km/h 91 % 0 mm
03:05 -18.6 °C -19.3 °C 34841.9 hPa SW 1.3 km/h 6.9 km/h 91 % 0 mm
03:09 -18.7 °C -19.4 °C 34841.9 hPa WSW 3.4 km/h 6.9 km/h 91 % 0 mm
03:14 -18.7 °C -19.5 °C 34808.1 hPa WSW 1 km/h 5.6 km/h 90 % 0 mm
03:16 -18.8 °C -19.6 °C 34808.1 hPa North 0.3 km/h   90 % 0 mm
03:21 -18.8 °C -19.6 °C 34808.1 hPa Calm     90 % 0 mm
03:26 -18.8 °C -19.6 °C 34808.1 hPa West 0.8 km/h 6.4 km/h 90 % 0 mm
03:27 -18.8 °C -19.6 °C 34808.1 hPa WSW 0.8 km/h 6.4 km/h 90 % 0 mm
03:29 -18.8 °C -19.6 °C 34841.9 hPa WSW 1 km/h 6.4 km/h 90 % 0 mm
03:33 -18.9 °C -19.6 °C 34841.9 hPa SW 1 km/h 6.4 km/h 91 % 0 mm
03:38 -18.9 °C -19.7 °C 34841.9 hPa West 0.3 km/h 7.6 km/h 91 % 0 mm
03:39 -18.9 °C -19.7 °C 34841.9 hPa WNW 0.5 km/h 7.6 km/h 91 % 0 mm
03:44 -19 °C -19.7 °C 34841.9 hPa WNW 0.8 km/h 7.6 km/h 91 % 0 mm
03:47 -19.1 °C -19.8 °C 34841.9 hPa WNW 0.8 km/h 7.6 km/h 91 % 0 mm
03:52 -19.1 °C -19.8 °C 34841.9 hPa Calm     91 % 0 mm
03:56 -19.1 °C -19.8 °C 34841.9 hPa Calm     91 % 0 mm
03:58 -19.1 °C -19.8 °C 34841.9 hPa Calm     91 % 0 mm
04:03 -19.1 °C -19.8 °C 34808.1 hPa Calm     91 % 0 mm
04:04 -19.1 °C -19.8 °C 34808.1 hPa Calm     91 % 0 mm
04:10 -19.2 °C -19.9 °C 34808.1 hPa Calm     91 % 0 mm
04:15 -19.2 °C -19.9 °C 34808.1 hPa Calm     91 % 0 mm
04:16 -19.2 °C -19.9 °C 34808.1 hPa Calm     91 % 0 mm
04:21 -19.2 °C -19.9 °C 34808.1 hPa Calm     91 % 0 mm
04:22 -19.2 °C -19.9 °C 34808.1 hPa Calm     91 % 0 mm
04:27 -19.2 °C -19.9 °C 34808.1 hPa Calm     91 % 0 mm
04:29 -19.2 °C -19.9 °C 34808.1 hPa Calm     91 % 0 mm
04:34 -19.2 °C -19.9 °C 34808.1 hPa Calm     91 % 0 mm
04:35 -19.2 °C -19.9 °C 34808.1 hPa Calm     91 % 0 mm
04:40 -19.1 °C -19.8 °C 34808.1 hPa Calm     91 % 0 mm
04:42 -19.1 °C -19.8 °C 34808.1 hPa Calm     91 % 0 mm
04:43 -19.1 °C -19.8 °C 34841.9 hPa Calm     91 % 0 mm
04:47 -19.1 °C -19.8 °C 34841.9 hPa Calm     91 % 0 mm
04:52 -19.1 °C -19.8 °C 34841.9 hPa WNW 0.3 km/h 6.4 km/h 91 % 0 mm
04:53 -19.1 °C -19.8 °C 34841.9 hPa WNW 0.8 km/h 6.9 km/h 91 % 0 mm
04:58 -19.1 °C -19.8 °C 34841.9 hPa WNW 2.3 km/h 6.9 km/h 91 % 0 mm
05:00 -19.1 °C -19.8 °C 34808.1 hPa WNW 2.3 km/h 6.9 km/h 91 % 0 mm
05:05 -19.1 °C -19.8 °C 34808.1 hPa NW 1 km/h 5.6 km/h 91 % 0 mm
05:10 -19.1 °C -19.7 °C 34808.1 hPa Calm     92 % 0 mm
05:15 -19.1 °C -19.7 °C 34841.9 hPa Calm     92 % 0 mm
05:16 -19.1 °C -19.7 °C 34841.9 hPa Calm     92 % 0 mm
05:21 -19.1 °C -19.7 °C 34841.9 hPa Calm     92 % 0 mm
05:23 -19.1 °C -19.7 °C 34841.9 hPa Calm     92 % 0 mm
05:28 -19.1 °C -19.7 °C 34841.9 hPa Calm     92 % 0 mm
05:33 -19.1 °C -19.7 °C 34808.1 hPa Calm     92 % 0 mm
05:34 -19.1 °C -19.7 °C 34808.1 hPa Calm     92 % 0 mm
05:39 -19.1 °C -19.7 °C 34808.1 hPa Calm     92 % 0 mm
05:40 -19.1 °C -19.7 °C 34808.1 hPa Calm     92 % 0 mm
05:43 -19.1 °C -19.7 °C 34808.1 hPa Calm     92 % 0 mm
05:48 -19.1 °C -19.7 °C 34808.1 hPa Calm     92 % 0 mm
05:52 -19.1 °C -19.7 °C 34808.1 hPa Calm     92 % 0 mm
05:57 -19.1 °C -19.7 °C 34808.1 hPa NW 0.8 km/h 5.6 km/h 92 % 0 mm
05:58 -19 °C -19.6 °C 34808.1 hPa NW 0.8 km/h 5.6 km/h 92 % 0 mm
06:03 -19 °C -19.6 °C 34841.9 hPa NW 0.8 km/h 5.6 km/h 92 % 0 mm
06:04 -19 °C -19.6 °C 34841.9 hPa NW 0.8 km/h 5.6 km/h 92 % 0 mm
06:09 -18.9 °C -19.5 °C 34841.9 hPa Calm     92 % 0 mm
06:14 -18.9 °C -19.4 °C 34841.9 hPa Calm     93 % 0 mm
06:15 -18.9 °C -19.4 °C 34841.9 hPa Calm     93 % 0 mm
06:16 -18.9 °C -19.4 °C 34841.9 hPa Calm     93 % 0 mm
06:21 -18.8 °C -19.4 °C 34841.9 hPa Calm     92 % 0 mm
06:23 -18.8 °C -19.4 °C 34841.9 hPa Calm   4.2 km/h 92 % 0 mm
06:25 -18.8 °C -19.4 °C 34841.9 hPa WSW 1.6 km/h 8 km/h 92 % 0 mm
06:30 -18.7 °C -19.2 °C 34841.9 hPa SW 4.3 km/h 8 km/h 93 % 0 mm
06:33 -18.7 °C -19.2 °C 34841.9 hPa SW 6.9 km/h 8.9 km/h 93 % 0 mm
06:39 -18.6 °C -19.2 °C 34841.9 hPa SW 3.9 km/h 8.9 km/h 93 % 0 mm
06:40 -18.6 °C -19.2 °C 34841.9 hPa SW 3.4 km/h 8.9 km/h 93 % 0 mm
06:46 -18.6 °C -19.2 °C 34841.9 hPa East 0.8 km/h 5.6 km/h 93 % 0 mm
06:51 -18.6 °C -19.1 °C 34841.9 hPa ENE 0.3 km/h 2.9 km/h 93 % 0 mm
06:53 -18.6 °C -19.1 °C 34841.9 hPa Calm     93 % 0 mm
06:54 -18.6 °C -19.1 °C 34841.9 hPa Calm     93 % 0 mm
06:59 -18.6 °C -19.1 °C 34841.9 hPa Calm     93 % 0 mm
07:04 -18.5 °C -19.1 °C 34841.9 hPa Calm     93 % 0 mm
07:09 -18.5 °C -19.1 °C 34841.9 hPa Calm     93 % 0 mm
07:14 -18.5 °C -19.1 °C 34841.9 hPa Calm     93 % 0 mm
07:17 -18.5 °C -19.1 °C 34841.9 hPa Calm     93 % 0 mm
07:21 -18.5 °C -19.1 °C 34841.9 hPa Calm     93 % 0 mm
07:26 -18.5 °C -19.1 °C 34841.9 hPa Calm     93 % 0 mm
07:28 -18.4 °C -19 °C 34841.9 hPa Calm     93 % 0 mm
07:32 -18.4 °C -18.9 °C 34841.9 hPa Calm     94 % 0 mm
07:35 -18.4 °C -18.9 °C 34841.9 hPa Calm     94 % 0 mm
07:37 -17.8 °C -19 °C 0 hPa Calm     0 % 0 mm
07:42 -18.4 °C -18.9 °C 34841.9 hPa Calm     94 % 0 mm
07:43 -18.4 °C -18.9 °C 34841.9 hPa Calm     94 % 0 mm
07:48 -18.4 °C -18.9 °C 34875.8 hPa Calm     94 % 0 mm
07:49 -18.4 °C -18.9 °C 34875.8 hPa Calm     94 % 0 mm
07:55 -18.4 °C -18.9 °C 34875.8 hPa Calm     94 % 0 mm
08:00 -18.4 °C -18.8 °C 34875.8 hPa Calm     94 % 0 mm
08:04 -18.4 °C -18.8 °C 34875.8 hPa Calm     94 % 0 mm
08:09 -18.4 °C -18.8 °C 34875.8 hPa Calm     94 % 0 mm
08:17 -18.3 °C -18.8 °C 34875.8 hPa Calm     94 % 0 mm
08:19 -18.3 °C -18.8 °C 34875.8 hPa Calm     94 % 0 mm
08:26 -18.3 °C -18.8 °C 34875.8 hPa Calm     94 % 0 mm
08:36 -18.2 °C -18.7 °C 34875.8 hPa Calm     94 % 0 mm
08:45 -18.2 °C -18.7 °C 34909.7 hPa Calm     94 % 0 mm
08:48 -18.2 °C -18.7 °C 34909.7 hPa Calm     94 % 0 mm
08:51 -18.1 °C -18.6 °C 34909.7 hPa Calm     94 % 0 mm
08:54 -18.1 °C -18.6 °C 34909.7 hPa Calm     94 % 0 mm
08:56 -18.1 °C -18.5 °C 34909.7 hPa Calm     94 % 0 mm
09:01 -18.1 °C -18.5 °C 34909.7 hPa Calm     94 % 0 mm
09:03 -18.1 °C -18.5 °C 34909.7 hPa Calm     94 % 0 mm
09:09 -18.1 °C -18.5 °C 34909.7 hPa Calm     94 % 0 mm
09:14 -18.1 °C -18.5 °C 34909.7 hPa Calm     94 % 0 mm
09:19 -18 °C -18.4 °C 34909.7 hPa Calm     94 % 0 mm
09:20 -18 °C -18.4 °C 34909.7 hPa Calm     94 % 0 mm
09:21 -18 °C -18.4 °C 34909.7 hPa Calm     94 % 0 mm
09:22 -18 °C -18.4 °C 34909.7 hPa Calm     94 % 0 mm
09:26 -17.9 °C -18.4 °C 34909.7 hPa Calm     94 % 0 mm
09:29 -17.9 °C -18.4 °C 34946.9 hPa Calm     94 % 0 mm
09:36 -17.8 °C -18.2 °C 34946.9 hPa Calm     95 % 0 mm
09:41 -17.8 °C -18.2 °C 34946.9 hPa Calm     95 % 0 mm
09:47 -17.7 °C -18.1 °C 34946.9 hPa Calm     95 % 0 mm
09:52 -17.7 °C -18.1 °C 34946.9 hPa Calm     95 % 0 mm
09:54 -17.6 °C -18 °C 34946.9 hPa SSW 0.3 km/h 4.2 km/h 95 % 0 mm
09:59 -17.6 °C -17.9 °C 34909.7 hPa SW 2.3 km/h 6.9 km/h 95 % 0 mm
10:01 -17.6 °C -17.9 °C 34909.7 hPa SW 2.3 km/h 6.9 km/h 95 % 0 mm
10:04 -17.5 °C -17.9 °C 34909.7 hPa SW 2.3 km/h 6.9 km/h 95 % 0 mm
10:09 -17.4 °C -17.8 °C 34909.7 hPa SW 0.5 km/h 5.6 km/h 95 % 0 mm
10:10 -17.4 °C -17.8 °C 34909.7 hPa SW 1.3 km/h 6.4 km/h 95 % 0 mm
10:12 -17.4 °C -17.8 °C 34909.7 hPa SW 2.1 km/h 6.4 km/h 95 % 0 mm
10:17 -17.4 °C -17.8 °C 34875.8 hPa SW 2.6 km/h 6.4 km/h 95 % 0 mm
10:19 -17.4 °C -17.8 °C 34875.8 hPa SW 2.1 km/h 6.4 km/h 95 % 0 mm
10:24 -17.3 °C -17.7 °C 34875.8 hPa SW 1 km/h 6.4 km/h 95 % 0 mm
10:25 -17.3 °C -17.7 °C 34875.8 hPa SW 1 km/h 6.4 km/h 95 % 0 mm
10:30 -17.2 °C -17.6 °C 34946.9 hPa SW 1 km/h 6.4 km/h 95 % 0 mm
10:31 -17.2 °C -17.6 °C 34946.9 hPa SW 1 km/h 6.4 km/h 95 % 0 mm
10:37 -17.2 °C -17.6 °C 34946.9 hPa WSW 0.8 km/h 5.6 km/h 95 % 0 mm
10:41 -17.1 °C -17.4 °C 34946.9 hPa SW 0.8 km/h 3.4 km/h 95 % 0 mm
10:42 -17.1 °C -17.4 °C 34946.9 hPa SW 0.8 km/h 5.6 km/h 95 % 0 mm
10:50 -16.9 °C -17.3 °C 34909.7 hPa SW 3.7 km/h 7.6 km/h 95 % 0 mm
10:56 -16.9 °C -17.3 °C 34909.7 hPa SW 2.6 km/h 5.1 km/h 95 % 0 mm
10:58 -16.8 °C -17.2 °C 34909.7 hPa SW 1.8 km/h 5.1 km/h 95 % 0 mm
11:02 -16.8 °C -17.2 °C 34909.7 hPa SW 0.5 km/h 4.2 km/h 95 % 0 mm
11:03 -16.8 °C -17.2 °C 34909.7 hPa SSW 0.8 km/h 5.1 km/h 95 % 0 mm
11:08 -16.7 °C -17.1 °C 34909.7 hPa SSE 2.1 km/h 6.4 km/h 95 % 0 mm
11:10 -16.7 °C -17.1 °C 34909.7 hPa SSE 2.6 km/h 6.4 km/h 95 % 0 mm
11:13 -16.6 °C -17 °C 34909.7 hPa SSE 3.1 km/h 6.4 km/h 95 % 0 mm
11:18 -16.4 °C -16.8 °C 34909.7 hPa SE 3.7 km/h 6.9 km/h 95 % 0 mm
11:21 -16.3 °C -16.7 °C 34909.7 hPa SE 3.9 km/h 7.6 km/h 95 % 0 mm
11:24 -16.3 °C -16.7 °C 34909.7 hPa ESE 5 km/h 8 km/h 95 % 0 mm
11:28 -16.2 °C -16.6 °C 34909.7 hPa ESE 4.3 km/h 8 km/h 95 % 0 mm
11:30 -16.2 °C -16.6 °C 34875.8 hPa ESE 4.2 km/h 8 km/h 95 % 0 mm
11:35 -16.1 °C -16.4 °C 34875.8 hPa ESE 1.6 km/h 5.6 km/h 95 % 0 mm
11:36 -16.1 °C -16.4 °C 34875.8 hPa ESE 1.3 km/h 5.6 km/h 95 % 0 mm
11:41 -15.9 °C -16.3 °C 34875.8 hPa Calm     95 % 0 mm
11:43 -15.8 °C -16.2 °C 34875.8 hPa Calm     95 % 0 mm
11:45 -15.8 °C -16.2 °C 34875.8 hPa Calm   2.3 km/h 95 % 0 mm
11:50 -15.6 °C -16.1 °C 34875.8 hPa South 0.5 km/h 6.4 km/h 94 % 0 mm
11:53 -15.4 °C -15.9 °C 34875.8 hPa South 1.6 km/h 6.4 km/h 95 % 0 mm
11:58 -15.3 °C -15.7 °C 34875.8 hPa SSE 2.9 km/h 6.4 km/h 95 % 0 mm
12:03 -15.1 °C -15.6 °C 34841.9 hPa SE 3.9 km/h 8 km/h 94 % 0 mm
12:08 -15 °C -15.5 °C 34841.9 hPa East 4.2 km/h 8 km/h 94 % 0 mm
12:09 -15 °C -15.5 °C 34841.9 hPa ESE 3.9 km/h 8 km/h 94 % 0 mm
12:14 -14.9 °C -15.4 °C 34841.9 hPa ESE 2.9 km/h 6.9 km/h 94 % 0 mm
12:18 -14.7 °C -15.2 °C 34841.9 hPa South 1.8 km/h 6.9 km/h 94 % 0 mm
12:21 -14.6 °C -15.1 °C 34841.9 hPa SSW 0.5 km/h 4.2 km/h 94 % 0 mm
12:26 -14.4 °C -15.1 °C 34841.9 hPa SSE 1.3 km/h 6.9 km/h 93 % 0 mm
12:27 -14.4 °C -14.9 °C 34841.9 hPa SSE 1.8 km/h 6.9 km/h 93 % 0 mm
12:32 -14.3 °C -14.8 °C 34841.9 hPa SSE 2.9 km/h 6.9 km/h 93 % 0 mm
12:38 -14.3 °C -14.9 °C 34841.9 hPa South 2.3 km/h 6.4 km/h 92 % 0 mm
12:39 -14.2 °C -14.9 °C 34841.9 hPa South 2.9 km/h 6.4 km/h 92 % 0 mm
12:45 -14.2 °C -14.9 °C 34841.9 hPa South 3.9 km/h 6.4 km/h 91 % 0 mm
12:46 -14.2 °C -14.9 °C 34841.9 hPa South 3.9 km/h 6.4 km/h 91 % 0 mm
12:52 -14.2 °C -15.1 °C 34841.9 hPa SSE 5.5 km/h 8.9 km/h 90 % 0 mm
12:57 -14.3 °C -15.2 °C 34841.9 hPa SE 6.8 km/h 8.9 km/h 89 % 0 mm
13:04 -14.4 °C -15.4 °C 34841.9 hPa SSE 5.1 km/h 8 km/h 88 % 0 mm
13:09 -14.4 °C -15.6 °C 34841.9 hPa SW 1.3 km/h 4.2 km/h 87 % 0 mm
13:14 -14.4 °C -15.6 °C 34841.9 hPa SSW 2.3 km/h 6.9 km/h 87 % 0 mm
13:20 -14.4 °C -15.6 °C 34841.9 hPa SSW 3.1 km/h 6.9 km/h 87 % 0 mm
13:22 -14.4 °C -15.7 °C 34841.9 hPa South 3.1 km/h 9.8 km/h 86 % 0 mm
13:23 -14.4 °C -15.7 °C 34841.9 hPa South 3.4 km/h 9.8 km/h 86 % 0 mm
13:28 -14.4 °C -15.7 °C 34841.9 hPa South 4.3 km/h 9.8 km/h 86 % 0 mm
13:29 -14.4 °C -15.7 °C 34841.9 hPa South 4.7 km/h 9.8 km/h 86 % 0 mm
13:33 -14.4 °C -15.7 °C 34841.9 hPa South 5 km/h 6.9 km/h 86 % 0 mm
13:37 -14.4 °C -15.7 °C 34841.9 hPa SSE 4.2 km/h 6.9 km/h 85 % 0 mm
13:39 -14.4 °C -15.7 °C 34841.9 hPa South 4.2 km/h 7.6 km/h 85 % 0 mm
13:44 -14.5 °C -15.8 °C 34808.1 hPa South 3.9 km/h 7.6 km/h 85 % 0 mm
13:47 -14.5 °C -15.8 °C 34808.1 hPa South 3.9 km/h 7.6 km/h 85 % 0 mm
13:50 -14.5 °C -15.8 °C 34808.1 hPa South 4.2 km/h 9.8 km/h 85 % 0 mm
13:53 -14.5 °C -15.9 °C 34808.1 hPa South 4.2 km/h 9.8 km/h 84 % 0 mm
13:58 -14.4 °C -15.8 °C 34808.1 hPa South 6.9 km/h 11.1 km/h 84 % 0 mm
14:03 -14.4 °C -15.9 °C 34808.1 hPa South 6.9 km/h 11.1 km/h 83 % 0 mm
14:04 -14.4 °C -15.9 °C 34808.1 hPa South 6.9 km/h 11.1 km/h 83 % 0 mm
14:09 -14.3 °C -15.8 °C 34808.1 hPa South 5.5 km/h 8 km/h 83 % 0 mm
14:10 -14.3 °C -15.8 °C 34808.1 hPa South 5.1 km/h 8 km/h 83 % 0 mm
14:15 -17.8 °C -15.8 °C 0 hPa South 4.7 km/h 6.4 km/h 0 % 0 mm
14:20 -14.3 °C -15.9 °C 34808.1 hPa SSW 3.1 km/h 5.1 km/h 82 % 0 mm
14:21 -14.3 °C -15.9 °C 34808.1 hPa SSW 2.6 km/h 5.1 km/h 82 % 0 mm
14:26 -14.4 °C -16.1 °C 34808.1 hPa SSW 1.8 km/h 5.1 km/h 81 % 0 mm
14:27 -14.4 °C -16.1 °C 34808.1 hPa SSW 1.8 km/h 5.1 km/h 81 % 0 mm
14:32 -14.4 °C -16.1 °C 34808.1 hPa SSW 1.3 km/h 5.6 km/h 81 % 0 mm
14:35 -14.5 °C -16.2 °C 34808.1 hPa SW 2.1 km/h 6.4 km/h 81 % 0 mm
14:40 -14.5 °C -16.3 °C 34808.1 hPa SW 3.7 km/h 6.4 km/h 80 % 0 mm
14:46 -14.4 °C -16.2 °C 34808.1 hPa SW 4.7 km/h 6.4 km/h 80 % 0 mm
14:52 -14.4 °C -16.3 °C 34808.1 hPa SW 3.1 km/h 5.6 km/h 79 % 0 mm
14:53 -14.4 °C -16.3 °C 34808.1 hPa SW 2.3 km/h 6.4 km/h 79 % 0 mm
14:57 -14.6 °C -16.4 °C 34808.1 hPa SW 1.8 km/h 6.4 km/h 79 % 0 mm
15:03 -14.7 °C -16.6 °C 0 hPa SW 3.7 km/h 5.1 km/h 78 % 0 mm
15:04 -14.7 °C -16.6 °C 0 hPa SW 3.7 km/h 5.1 km/h 78 % 0 mm
15:09 -14.8 °C -16.7 °C 0 hPa SW 1.3 km/h 5.1 km/h 78 % 0 mm
15:12 -14.8 °C -16.7 °C 0 hPa SW 1.8 km/h 6.9 km/h 78 % 0 mm
15:14 -14.8 °C -16.8 °C 34774.2 hPa SW 0.8 km/h 6.9 km/h 78 % 0 mm
15:18 -14.8 °C -16.8 °C 34774.2 hPa SW 1 km/h 6.9 km/h 78 % 0 mm
15:19 -14.9 °C -16.8 °C 34774.2 hPa SW 1.3 km/h 6.9 km/h 78 % 0 mm
15:24 -14.9 °C -17 °C 34774.2 hPa SW 2.1 km/h 6.9 km/h 77 % 0 mm
15:27 -15 °C -17.1 °C 34774.2 hPa SW 3.4 km/h 6.9 km/h 77 % 0 mm
15:32 -15 °C -17.1 °C 34808.1 hPa WSW 3.9 km/h 6.9 km/h 77 % 0 mm
15:38 -15 °C -17.1 °C 34808.1 hPa WNW 2.9 km/h 6.9 km/h 77 % 0 mm
15:43 -15 °C -17.1 °C 34808.1 hPa NW 2.9 km/h 6.9 km/h 77 % 0 mm
15:45 -15 °C -17.1 °C 34808.1 hPa WNW 3.1 km/h 7.6 km/h 77 % 0 mm
15:52 -15 °C -17.1 °C 34808.1 hPa West 3.7 km/h 7.6 km/h 77 % 0 mm
15:54 -15.4 °C -17.5 °C 34808.1 hPa West 2.3 km/h 7.6 km/h 77 % 0 mm
15:57 -15.5 °C -17.6 °C 34808.1 hPa WNW 2.6 km/h 7.6 km/h 77 % 0 mm
16:03 -15.6 °C -17.6 °C 34808.1 hPa NW 2.9 km/h 6.4 km/h 77 % 0 mm
16:07 -15.7 °C -17.6 °C 34808.1 hPa WNW 0.3 km/h 4.2 km/h 78 % 0 mm
16:12 -15.7 °C -17.7 °C 34808.1 hPa Calm     78 % 0 mm
16:18 -17.8 °C -17.7 °C 0 hPa Calm     0 % 0 mm
16:23 -15.8 °C -17.8 °C 34808.1 hPa North 0.3 km/h   78 % 0 mm
16:28 -15.8 °C -17.8 °C 34808.1 hPa North 0.3 km/h   78 % 0 mm
16:31 -15.9 °C -17.9 °C 34808.1 hPa Calm   5.1 km/h 78 % 0 mm
16:36 -16 °C -17.9 °C 34808.1 hPa West 1.8 km/h 6.4 km/h 78 % 0 mm
16:41 -16.1 °C -18 °C 34808.1 hPa West 2.1 km/h 6.4 km/h 78 % 0 mm
16:45 -16.1 °C -18 °C 34808.1 hPa NW 1.3 km/h 5.6 km/h 78 % 0 mm
16:50 -16.1 °C -18 °C 34808.1 hPa NW 0.5 km/h 5.6 km/h 78 % 0 mm
16:52 -16.1 °C -18 °C 34808.1 hPa NW 0.8 km/h 5.6 km/h 78 % 0 mm
16:56 -16.1 °C -18 °C 34808.1 hPa North 0.3 km/h   78 % 0 mm
17:01 -16.2 °C -18.1 °C 34808.1 hPa Calm     79 % 0 mm
17:07 -16.3 °C -18.1 °C 34808.1 hPa Calm     79 % 0 mm
17:16 -16.4 °C -18.2 °C 34808.1 hPa Calm   5.6 km/h 79 % 0 mm
17:20 -16.4 °C -18.3 °C 34808.1 hPa SW 0.5 km/h 5.6 km/h 79 % 0 mm
17:25 -16.6 °C -18.3 °C 34808.1 hPa SW 0.5 km/h 5.6 km/h 80 % 0 mm
17:27 -16.6 °C -18.3 °C 34808.1 hPa SW 0.3 km/h 3.4 km/h 80 % 0 mm
17:32 -16.7 °C -18.4 °C 34808.1 hPa Calm     80 % 0 mm
17:34 -16.7 °C -18.4 °C 34808.1 hPa Calm     80 % 0 mm
17:39 -16.8 °C -18.5 °C 34808.1 hPa Calm     80 % 0 mm
17:40 -16.8 °C -18.5 °C 34808.1 hPa Calm     80 % 0 mm
17:45 -16.9 °C -18.6 °C 34808.1 hPa Calm     80 % 0 mm
17:50 -17 °C -18.7 °C 34808.1 hPa Calm     80 % 0 mm
17:55 -17.1 °C -18.8 °C 34808.1 hPa Calm     80 % 0 mm
17:58 -17.2 °C -18.8 °C 34808.1 hPa Calm     80 % 0 mm
18:05 -17.2 °C -18.9 °C 34808.1 hPa Calm     80 % 0 mm
18:10 -17.2 °C -18.9 °C 34808.1 hPa Calm     80 % 0 mm
18:11 -17.2 °C -18.9 °C 34808.1 hPa Calm     80 % 0 mm
18:16 -17.2 °C -18.9 °C 34808.1 hPa Calm     80 % 0 mm
18:20 -17.2 °C -18.9 °C 34808.1 hPa Calm     80 % 0 mm
18:22 -17.2 °C -18.9 °C 34808.1 hPa Calm     80 % 0 mm
18:25 -17.2 °C -18.9 °C 34808.1 hPa Calm     80 % 0 mm
18:40 -17.2 °C -18.9 °C 34808.1 hPa Calm     80 % 0 mm
18:42 -17.2 °C -18.9 °C 34808.1 hPa WSW 0.5 km/h 2.9 km/h 80 % 0 mm
18:49 -17.2 °C -18.9 °C 34808.1 hPa West 2.6 km/h 5.6 km/h 80 % 0 mm
18:50 -17.2 °C -18.9 °C 34808.1 hPa West 2.6 km/h 5.6 km/h 80 % 0 mm
18:54 -17.2 °C -18.9 °C 34808.1 hPa West 2.1 km/h 5.6 km/h 80 % 0 mm
18:59 -17.9 °C -19.4 °C 34808.1 hPa Calm     82 % 0 mm
19:02 -18 °C -19.5 °C 34808.1 hPa Calm     82 % 0 mm
19:05 -18 °C -19.4 °C 34808.1 hPa Calm     83 % 0 mm
19:09 -18 °C -19.4 °C 34808.1 hPa Calm     83 % 0 mm
19:14 -18 °C -19.4 °C 34808.1 hPa Calm     83 % 0 mm
19:16 -18.1 °C -19.5 °C 34808.1 hPa Calm     83 % 0 mm
19:20 -18.1 °C -19.5 °C 34808.1 hPa Calm     83 % 0 mm
19:25 -18.1 °C -19.5 °C 34808.1 hPa Calm     83 % 0 mm
19:26 -18.2 °C -19.6 °C 34808.1 hPa Calm     83 % 0 mm
19:31 -18.2 °C -19.6 °C 34808.1 hPa Calm     83 % 0 mm
19:32 -18.2 °C -19.6 °C 34808.1 hPa Calm     83 % 0 mm
19:36 -18.2 °C -19.6 °C 34808.1 hPa Calm     83 % 0 mm
19:38 -18.2 °C -19.6 °C 34808.1 hPa Calm     84 % 0 mm
19:44 -18.3 °C -19.6 °C 34808.1 hPa Calm     84 % 0 mm
19:49 -18.3 °C -19.7 °C 34808.1 hPa Calm     84 % 0 mm
19:53 -18.3 °C -19.7 °C 34808.1 hPa Calm     84 % 0 mm
19:58 -18.3 °C -19.7 °C 34808.1 hPa Calm     84 % 0 mm
19:59 -18.3 °C -19.7 °C 34808.1 hPa Calm     84 % 0 mm
20:05 -18.4 °C -19.6 °C 34808.1 hPa Calm     85 % 0 mm
20:12 -18.4 °C -19.6 °C 34808.1 hPa Calm     85 % 0 mm
20:18 -18.4 °C -19.7 °C 34808.1 hPa Calm     85 % 0 mm
20:20 -18.4 °C -19.7 °C 34808.1 hPa Calm     85 % 0 mm
20:25 -18.4 °C -19.7 °C 34808.1 hPa SSW 0.5 km/h 5.6 km/h 85 % 0 mm
20:34 -18.4 °C -19.6 °C 34808.1 hPa WNW 1.6 km/h 5.6 km/h 86 % 0 mm
20:35 -18.4 °C -19.6 °C 34808.1 hPa WNW 1.6 km/h 5.6 km/h 86 % 0 mm
20:37 -18.4 °C -19.6 °C 34808.1 hPa NW 1.3 km/h 5.6 km/h 86 % 0 mm
20:41 -18.5 °C -19.6 °C 34808.1 hPa NW 1.3 km/h 5.6 km/h 86 % 0 mm
20:46 -18.5 °C -19.6 °C 34808.1 hPa Calm     86 % 0 mm
20:47 -18.5 °C -19.6 °C 34808.1 hPa Calm     86 % 0 mm
20:49 -18.5 °C -19.6 °C 34808.1 hPa Calm     86 % 0 mm
20:53 -18.6 °C -19.7 °C 34808.1 hPa Calm     86 % 0 mm
20:59 -18.6 °C -19.6 °C 34808.1 hPa Calm     87 % 0 mm
21:04 -18.6 °C -19.6 °C 34808.1 hPa Calm     87 % 0 mm
21:08 -18.6 °C -19.7 °C 34808.1 hPa Calm     87 % 0 mm
21:15 -18.6 °C -19.6 °C 34808.1 hPa Calm     87 % 0 mm
21:20 -18.6 °C -19.6 °C 34808.1 hPa Calm     87 % 0 mm
21:25 -18.6 °C -19.6 °C 34808.1 hPa Calm     87 % 0 mm
21:29 -18.6 °C -19.6 °C 34808.1 hPa Calm     87 % 0 mm
21:34 -18.6 °C -19.6 °C 34808.1 hPa Calm     87 % 0 mm
21:39 -18.6 °C -19.6 °C 34808.1 hPa Calm     87 % 0 mm
21:44 -18.6 °C -19.5 °C 34808.1 hPa Calm     88 % 0 mm
21:49 -18.6 °C -19.5 °C 34808.1 hPa Calm     88 % 0 mm
21:50 -18.6 °C -19.5 °C 34808.1 hPa Calm     88 % 0 mm
21:58 -18.6 °C -19.5 °C 34808.1 hPa Calm     88 % 0 mm
22:03 -18.6 °C -19.5 °C 34841.9 hPa Calm     88 % 0 mm
22:04 -18.6 °C -19.5 °C 34841.9 hPa Calm     88 % 0 mm
22:09 -18.6 °C -19.5 °C 34841.9 hPa Calm     88 % 0 mm
22:10 -17.8 °C -19.5 °C 0 hPa Calm     0 % 0 mm
22:15 -18.5 °C -19.4 °C 34841.9 hPa Calm     89 % 0 mm
22:18 -18.5 °C -19.4 °C 34841.9 hPa Calm     89 % 0 mm
22:23 -18.5 °C -19.4 °C 34841.9 hPa Calm     89 % 0 mm
22:28 -18.5 °C -19.4 °C 34841.9 hPa Calm     89 % 0 mm
22:32 -18.4 °C -19.3 °C 34841.9 hPa Calm     89 % 0 mm
22:37 -18.4 °C -19.3 °C 34841.9 hPa Calm     89 % 0 mm
22:39 -18.4 °C -19.3 °C 34841.9 hPa Calm     89 % 0 mm
22:44 -18.4 °C -19.3 °C 34841.9 hPa Calm     89 % 0 mm
22:45 -18.4 °C -19.3 °C 34841.9 hPa Calm     89 % 0 mm
22:50 -18.4 °C -19.3 °C 34841.9 hPa Calm     89 % 0 mm
22:51 -18.4 °C -19.3 °C 34841.9 hPa Calm     89 % 0 mm
22:53 -18.4 °C -19.3 °C 34841.9 hPa Calm     89 % 0 mm
22:58 -18.5 °C -19.4 °C 34841.9 hPa Calm     89 % 0 mm
23:03 -18.5 °C -19.3 °C 34841.9 hPa Calm     90 % 0 mm
23:08 -18.6 °C -19.3 °C 34841.9 hPa Calm     90 % 0 mm
23:09 -18.6 °C -19.3 °C 34841.9 hPa Calm     90 % 0 mm
23:19 -18.7 °C -19.4 °C 34841.9 hPa Calm     90 % 0 mm
23:24 -18.7 °C -19.5 °C 34841.9 hPa Calm     90 % 0 mm
23:25 -18.7 °C -19.5 °C 34841.9 hPa Calm     90 % 0 mm
23:27 -18.7 °C -19.5 °C 34841.9 hPa Calm     90 % 0 mm
23:32 -18.8 °C -19.6 °C 34841.9 hPa Calm     90 % 0 mm
23:34 -18.8 °C -19.6 °C 34841.9 hPa Calm     90 % 0 mm
23:39 -18.8 °C -19.6 °C 34841.9 hPa Calm     90 % 0 mm
23:44 -18.8 °C -19.6 °C 34841.9 hPa Calm     90 % 0 mm
23:47 -18.9 °C -19.7 °C 34841.9 hPa Calm     90 % 0 mm
23:53 -18.9 °C -19.7 °C 34841.9 hPa Calm     90 % 0 mm
23:55 -18.9 °C -19.7 °C 34841.9 hPa Calm     90 % 0 mm
23:59 -19 °C -19.8 °C 34841.9 hPa Calm     90 % 0 mm
Vremenska postaja Senovo
Podatki zbrani iz Weather Underground - 3.25 mb

Script developed by  Jim McMurry - jmcmurry@mwt.net Adapted for the template by  Wim van der Kuil - Leuven-Template.eu

Vremenski podatki so objavljeni na:

European Weather Network

WeatherCloud

Weather Underground

AWEKAS

HAMweather, WeatherForYou, PWS Weather

MapView

Geostik

Slovenia weather network

Oprema, ki se uporablja:

Vremenski program
Cumulus

Vremenski server
Asus

Cumulus

Asus